Time;durP1;ratioP1;P1;durP2;ratioP2;P2;SDS_P1;SDS_P2;PMS_P1;PMS_P2;Temp;Humidity;BMP_temperature;BMP_pressure;BME280_temperature;BME280_humidity;BME280_pressure;Samples;Min_cycle;Max_cycle;Signal;HPM_P1;HPM_P2
2021/06/14 00:00:13;;;;;;;2.08;1.70;;;14.30;99.90;;;;;;2040870;70;21123;-78
2021/06/14 00:02:39;;;;;;;6.42;1.80;;;14.20;99.90;;;;;;2040855;70;21019;-79
2021/06/14 00:05:07;;;;;;;5.55;1.50;;;14.10;99.90;;;;;;2040762;70;21567;-79
2021/06/14 00:07:39;;;;;;;6.20;1.70;;;14.10;99.90;;;;;;2040740;70;21475;-80
2021/06/14 00:10:07;;;;;;;2.22;1.40;;;14.10;99.90;;;;;;2040855;70;21041;-79
2021/06/14 00:12:33;;;;;;;2.30;1.45;;;14.00;99.90;;;;;;2040804;69;21031;-79
2021/06/14 00:14:59;;;;;;;2.47;1.50;;;14.10;99.90;;;;;;2040844;70;21123;-80
2021/06/14 00:17:25;;;;;;;5.67;1.65;;;14.10;99.90;;;;;;2040579;70;21271;-80
2021/06/14 00:19:53;;;;;;;3.42;1.35;;;14.10;99.90;;;;;;2040678;70;21058;-79
2021/06/14 00:22:19;;;;;;;3.90;1.50;;;14.00;99.90;;;;;;2040655;70;21040;-79
2021/06/14 00:24:45;;;;;;;2.58;1.45;;;14.00;99.90;;;;;;2040662;70;21050;-79
2021/06/14 00:27:11;;;;;;;4.78;1.77;;;13.90;99.90;;;;;;2040746;70;21113;-79
2021/06/14 00:29:43;;;;;;;3.60;1.35;;;13.90;99.90;;;;;;2040669;69;21059;-79
2021/06/14 00:32:19;;;;;;;;;;;;;;;;;;;;;
2021/06/14 00:34:37;;;;;;;5.53;1.87;;;13.80;99.90;;;;;;2034010;70;21086;-78
2021/06/14 00:37:03;;;;;;;2.55;1.60;;;13.70;99.90;;;;;;2040697;70;21119;-77
2021/06/14 00:39:32;;;;;;;2.35;1.45;;;13.70;99.90;;;;;;2040500;70;21129;-78
2021/06/14 00:41:58;;;;;;;2.67;1.50;;;13.60;99.90;;;;;;2040583;69;21162;-78
2021/06/14 00:44:25;;;;;;;1.92;1.57;;;13.50;99.90;;;;;;2040523;70;21062;-78
2021/06/14 00:46:51;;;;;;;2.42;1.40;;;13.50;99.90;;;;;;2040619;70;21603;-79
2021/06/14 00:49:20;;;;;;;2.90;1.70;;;13.50;99.90;;;;;;2027435;70;21051;-78
2021/06/14 00:51:46;;;;;;;3.50;1.47;;;13.40;99.90;;;;;;2039225;70;21015;-78
2021/06/14 00:54:12;;;;;;;2.42;1.62;;;13.30;99.90;;;;;;2040738;70;21116;-78
2021/06/14 00:56:44;;;;;;;2.35;1.42;;;13.20;99.90;;;;;;2040768;70;21051;-79
2021/06/14 00:59:10;;;;;;;8.35;2.10;;;13.20;99.90;;;;;;2040754;70;21049;-79
2021/06/14 01:01:44;;;;;;;2.60;1.65;;;13.10;99.90;;;;;;2040744;70;21046;-79
2021/06/14 01:04:04;;;;;;;2.08;1.72;;;13.20;99.90;;;;;;2036260;70;21050;-79
2021/06/14 01:06:41;;;;;;;;;;;;;;;;;;;;;
2021/06/14 01:09:01;;;;;;;4.58;2.00;;;13.20;99.90;;;;;;2033507;70;21165;-79
2021/06/14 01:11:27;;;;;;;4.42;2.10;;;13.20;99.90;;;;;;2040595;70;21520;-79
2021/06/14 01:13:53;;;;;;;1.60;1.40;;;13.20;99.90;;;;;;2040482;70;21046;-79
2021/06/14 01:16:23;;;;;;;2.87;1.77;;;13.20;99.90;;;;;;2040599;69;21046;-79
2021/06/14 01:18:49;;;;;;;3.45;1.87;;;13.20;99.90;;;;;;2040463;70;21062;-80
2021/06/14 01:21:17;;;;;;;5.55;1.50;;;13.20;99.90;;;;;;2040634;70;21474;-80
2021/06/14 01:23:43;;;;;;;2.65;1.65;;;13.20;99.90;;;;;;2039978;70;21145;-79
2021/06/14 01:26:09;;;;;;;7.12;2.10;;;13.10;99.90;;;;;;2040725;70;21124;-79
2021/06/14 01:28:37;;;;;;;4.28;1.98;;;13.10;99.90;;;;;;2040548;70;21034;-80
2021/06/14 01:31:05;;;;;;;1.98;1.50;;;13.20;99.90;;;;;;2040254;70;21050;-78
2021/06/14 01:33:34;;;;;;;7.70;2.25;;;13.10;99.90;;;;;;2040820;70;21063;-78
2021/06/14 01:36:01;;;;;;;3.45;1.85;;;13.10;99.90;;;;;;2040690;70;21067;-78
2021/06/14 01:38:30;;;;;;;2.55;1.80;;;13.10;99.90;;;;;;2040835;70;21043;-78
2021/06/14 01:40:56;;;;;;;5.70;1.62;;;13.10;99.90;;;;;;2041558;69;20996;-78
2021/06/14 01:43:22;;;;;;;4.50;1.95;;;13.00;99.90;;;;;;2044312;70;20995;-79
2021/06/14 01:45:48;;;;;;;3.05;1.72;;;13.00;99.90;;;;;;2042616;69;20988;-79
2021/06/14 01:48:16;;;;;;;5.37;2.10;;;13.00;99.90;;;;;;2041326;70;21062;-79
2021/06/14 01:50:42;;;;;;;5.05;2.20;;;13.00;99.90;;;;;;2040885;70;21119;-80
2021/06/14 01:53:08;;;;;;;2.08;1.30;;;12.90;99.90;;;;;;2040813;69;20987;-79
2021/06/14 01:55:36;;;;;;;2.83;1.65;;;12.90;99.90;;;;;;2040996;69;21058;-79
2021/06/14 01:58:02;;;;;;;1.98;1.67;;;12.90;99.90;;;;;;2040985;69;21124;-79
2021/06/14 02:00:31;;;;;;;2.87;1.80;;;12.90;99.90;;;;;;2040986;70;21062;-79
2021/06/14 02:02:58;;;;;;;2.58;1.62;;;12.80;99.90;;;;;;2039621;70;21060;-78
2021/06/14 02:05:24;;;;;;;1.65;1.32;;;12.80;99.90;;;;;;2040526;70;21119;-79
2021/06/14 02:07:52;;;;;;;6.70;1.87;;;12.80;99.90;;;;;;2040746;69;21124;-80
2021/06/14 02:10:19;;;;;;;1.62;1.37;;;12.70;99.90;;;;;;2041130;70;21046;-80
2021/06/14 02:12:52;;;;;;;2.05;1.80;;;12.70;99.90;;;;;;2040861;70;21058;-79
2021/06/14 02:15:16;;;;;;;4.33;1.90;;;12.60;99.90;;;;;;2038538;70;21023;-79
2021/06/14 02:17:42;;;;;;;4.70;1.60;;;12.60;99.90;;;;;;2041003;70;21050;-80
2021/06/14 02:20:14;;;;;;;3.67;1.70;;;12.50;99.90;;;;;;2041271;70;21043;-79
2021/06/14 02:22:40;;;;;;;3.92;2.10;;;12.40;99.90;;;;;;2041330;70;21535;-80
2021/06/14 02:25:06;;;;;;;8.70;1.80;;;12.40;99.90;;;;;;2040950;70;21556;-79
2021/06/14 02:27:35;;;;;;;2.72;1.62;;;12.50;99.90;;;;;;2040839;69;21112;-80
2021/06/14 02:30:01;;;;;;;1.52;1.40;;;12.50;99.90;;;;;;2040801;70;21179;-80
2021/06/14 02:32:28;;;;;;;3.52;1.82;;;12.40;99.90;;;;;;2040766;70;21047;-79
2021/06/14 02:34:54;;;;;;;2.65;1.87;;;12.40;99.90;;;;;;2040831;69;21439;-79
2021/06/14 02:37:21;;;;;;;1.95;1.70;;;12.40;99.90;;;;;;2041038;69;21078;-80
2021/06/14 02:39:47;;;;;;;3.10;1.90;;;12.30;99.90;;;;;;2041090;69;21087;-80
2021/06/14 02:42:13;;;;;;;10.03;1.90;;;12.30;99.90;;;;;;2040994;70;21020;-80
2021/06/14 02:44:39;;;;;;;4.53;1.90;;;12.20;99.90;;;;;;2041368;70;21046;-80
2021/06/14 02:47:07;;;;;;;2.72;1.77;;;12.20;99.90;;;;;;2041496;69;21050;-80
2021/06/14 02:49:36;;;;;;;3.00;1.80;;;12.20;99.90;;;;;;2041377;70;21094;-81
2021/06/14 02:52:02;;;;;;;3.17;1.95;;;12.20;99.90;;;;;;2041591;70;21491;-80
2021/06/14 02:54:28;;;;;;;5.33;2.35;;;12.10;99.90;;;;;;2041848;70;21435;-80
2021/06/14 02:56:54;;;;;;;9.50;1.98;;;12.10;99.90;;;;;;2043757;70;21031;-79
2021/06/14 02:59:20;;;;;;;1.95;1.55;;;12.10;99.90;;;;;;2043978;70;21011;-80
2021/06/14 03:01:46;;;;;;;2.90;1.60;;;12.20;99.90;;;;;;2044004;70;21046;-78
2021/06/14 03:04:12;;;;;;;3.60;1.80;;;12.20;99.90;;;;;;2043736;69;21051;-79
2021/06/14 03:06:39;;;;;;;5.78;1.70;;;12.10;99.90;;;;;;2043704;69;21065;-79
2021/06/14 03:09:06;;;;;;;7.20;2.15;;;12.00;99.90;;;;;;2041589;70;21120;-79
2021/06/14 03:11:34;;;;;;;4.62;1.98;;;12.00;99.90;;;;;;2040823;69;21573;-79
2021/06/14 03:14:05;;;;;;;2.30;1.70;;;12.00;99.90;;;;;;2040940;69;21051;-79
2021/06/14 03:16:31;;;;;;;3.30;1.62;;;12.00;99.90;;;;;;2039864;70;21144;-79
2021/06/14 03:18:57;;;;;;;1.65;1.55;;;12.00;99.90;;;;;;2040778;70;21066;-78
2021/06/14 03:21:23;;;;;;;4.65;1.57;;;12.00;99.90;;;;;;2040752;69;21125;-80
2021/06/14 03:24:07;;;;;;;5.60;1.80;;;11.90;99.90;;;;;;2040726;70;21031;-80
2021/06/14 03:26:28;;;;;;;2.58;1.67;;;11.90;99.90;;;;;;2036019;70;21047;-79
2021/06/14 03:28:56;;;;;;;4.47;2.12;;;11.90;99.90;;;;;;2040723;70;21054;-80
2021/06/14 03:31:25;;;;;;;2.08;1.82;;;11.80;99.90;;;;;;2040528;69;21059;-80
2021/06/14 03:33:51;;;;;;;3.20;1.90;;;11.80;99.90;;;;;;2040488;70;21459;-80
2021/06/14 03:36:39;;;;;;;3.12;2.10;;;11.80;99.90;;;;;;2040620;70;21403;-80
2021/06/14 03:38:45;;;;;;;4.95;1.72;;;11.80;99.90;;;;;;2022973;70;21135;-80
2021/06/14 03:41:14;;;;;;;2.15;1.92;;;11.80;99.90;;;;;;2040576;70;21046;-80
2021/06/14 03:43:39;;;;;;;4.87;2.00;;;11.80;99.90;;;;;;2039788;70;21401;-80
2021/06/14 03:46:08;;;;;;;2.52;1.87;;;11.80;99.90;;;;;;2040600;70;21466;-81
2021/06/14 03:48:33;;;;;;;3.90;1.90;;;11.90;99.90;;;;;;2039641;70;21066;-80
2021/06/14 03:50:59;;;;;;;4.28;2.10;;;11.80;99.90;;;;;;2040694;69;21124;-80
2021/06/14 03:53:31;;;;;;;3.70;2.02;;;11.90;99.90;;;;;;2040510;70;21050;-80
2021/06/14 03:55:57;;;;;;;3.72;2.30;;;11.90;99.90;;;;;;2040514;70;21127;-80
2021/06/14 03:58:31;;;;;;;4.10;2.37;;;11.90;99.90;;;;;;2040743;70;21046;-81
2021/06/14 04:00:51;;;;;;;3.22;2.20;;;11.90;99.90;;;;;;2035901;70;21134;-79
2021/06/14 04:03:17;;;;;;;5.10;2.37;;;11.90;99.90;;;;;;2040556;70;21103;-79
2021/06/14 04:05:47;;;;;;;3.65;1.87;;;11.90;99.90;;;;;;2040623;70;21022;-78
2021/06/14 04:08:12;;;;;;;4.55;2.25;;;11.90;99.90;;;;;;2039586;69;21497;-80
2021/06/14 04:10:41;;;;;;;7.50;2.50;;;12.00;99.90;;;;;;2040617;70;21173;-79
2021/06/14 04:13:10;;;;;;;3.85;2.40;;;12.00;99.90;;;;;;2040614;70;21019;-79
2021/06/14 04:15:36;;;;;;;8.60;2.27;;;12.10;99.90;;;;;;2040621;70;21458;-79
2021/06/14 04:18:08;;;;;;;4.12;2.10;;;12.10;99.90;;;;;;2040589;70;21478;-79
2021/06/14 04:20:32;;;;;;;6.50;2.27;;;12.10;99.90;;;;;;2038768;70;21130;-78
2021/06/14 04:22:58;;;;;;;6.35;2.08;;;12.10;99.90;;;;;;2040647;69;21054;-79
2021/06/14 04:25:27;;;;;;;2.40;2.12;;;12.10;99.90;;;;;;2040582;70;21051;-78
2021/06/14 04:27:53;;;;;;;3.60;1.90;;;12.10;99.90;;;;;;2040564;70;21027;-77
2021/06/14 04:30:19;;;;;;;3.52;2.52;;;12.20;99.90;;;;;;2040709;70;21093;-78
2021/06/14 04:32:48;;;;;;;2.35;1.62;;;12.20;99.90;;;;;;2040674;69;21054;-77
2021/06/14 04:35:14;;;;;;;3.00;2.10;;;12.30;99.90;;;;;;2040596;69;21059;-78
2021/06/14 04:37:48;;;;;;;4.80;2.00;;;12.30;99.90;;;;;;2040580;70;21638;-81
2021/06/14 04:40:08;;;;;;;3.85;2.05;;;12.40;99.90;;;;;;2035840;70;21152;-80
2021/06/14 04:42:40;;;;;;;6.35;2.47;;;12.40;99.90;;;;;;2040637;70;21062;-77
2021/06/14 04:45:12;;;;;;;3.02;2.17;;;12.40;99.90;;;;;;2040621;70;21020;-78
2021/06/14 04:47:45;;;;;;;3.27;2.27;;;12.50;99.90;;;;;;2040247;70;21072;-79
2021/06/14 04:50:11;;;;;;;3.20;2.02;;;12.50;99.90;;;;;;2040501;69;21020;-79
2021/06/14 04:52:41;;;;;;;5.83;2.50;;;12.50;99.90;;;;;;2040766;70;21054;-80
2021/06/14 04:55:05;;;;;;;3.22;2.00;;;12.60;99.90;;;;;;2038276;70;21087;-79
2021/06/14 04:57:31;;;;;;;3.70;2.33;;;12.60;99.90;;;;;;2040522;70;21046;-79
2021/06/14 05:00:00;;;;;;;2.50;1.80;;;12.70;99.90;;;;;;2040691;69;21054;-80
2021/06/14 05:02:28;;;;;;;7.35;2.45;;;12.80;99.90;;;;;;2035485;70;21027;-76
2021/06/14 05:04:57;;;;;;;3.55;2.60;;;12.70;99.90;;;;;;2040674;70;21011;-76
2021/06/14 05:07:27;;;;;;;5.58;2.17;;;12.80;99.90;;;;;;2040825;70;21023;-75
2021/06/14 05:09:55;;;;;;;4.58;2.52;;;12.90;99.90;;;;;;2040701;70;21059;-79
2021/06/14 05:12:23;;;;;;;9.48;2.92;;;12.90;99.90;;;;;;2040298;70;21067;-80
2021/06/14 05:14:48;;;;;;;4.53;2.15;;;13.00;99.90;;;;;;2040267;70;21095;-79
2021/06/14 05:17:17;;;;;;;3.87;2.55;;;13.10;99.90;;;;;;2040823;70;21422;-77
2021/06/14 05:19:42;;;;;;;7.17;3.12;;;13.20;99.90;;;;;;2034061;70;21142;-79
2021/06/14 05:22:08;;;;;;;5.85;2.70;;;13.50;99.90;;;;;;2040507;70;21045;-79
2021/06/14 05:24:34;;;;;;;4.95;2.87;;;14.00;99.90;;;;;;2027565;70;21100;-78
2021/06/14 05:27:01;;;;;;;6.33;3.10;;;14.70;99.90;;;;;;2040665;70;21066;-77
2021/06/14 05:29:27;;;;;;;7.50;2.47;;;15.70;99.90;;;;;;2040710;70;21016;-76
2021/06/14 05:31:53;;;;;;;3.90;2.02;;;17.30;99.90;;;;;;2040689;69;21074;-78
2021/06/14 05:34:19;;;;;;;3.22;1.70;;;19.20;99.90;;;;;;2040772;70;21058;-79
2021/06/14 05:36:45;;;;;;;2.95;1.75;;;20.80;99.90;;;;;;2040922;70;21073;-79
2021/06/14 05:39:11;;;;;;;6.40;2.00;;;21.80;99.90;;;;;;2040769;70;21498;-79
2021/06/14 05:41:37;;;;;;;6.37;2.30;;;22.30;99.90;;;;;;2040712;70;21011;-79
2021/06/14 05:44:04;;;;;;;5.65;1.62;;;23.30;99.90;;;;;;2037725;70;21055;-77
2021/06/14 05:46:34;;;;;;;4.55;2.30;;;23.60;99.90;;;;;;2037243;70;21493;-77
2021/06/14 05:49:08;;;;;;;;;;;;;;;;;;;;;
2021/06/14 05:51:28;;;;;;;5.85;1.52;;;23.70;99.90;;;;;;2034100;70;21071;-83
2021/06/14 05:53:54;;;;;;;9.75;1.98;;;23.90;99.90;;;;;;2041497;69;21024;-81
2021/06/14 05:56:20;;;;;;;3.00;1.40;;;25.40;99.90;;;;;;2041213;70;21050;-81
2021/06/14 05:58:46;;;;;;;2.42;1.57;;;25.50;99.90;;;;;;2041155;70;21046;-80
2021/06/14 06:01:13;;;;;;;6.22;1.55;;;25.70;99.90;;;;;;2040887;70;21167;-82
2021/06/14 06:03:39;;;;;;;3.37;1.40;;;25.70;99.90;;;;;;2040583;70;21120;-80
2021/06/14 06:06:05;;;;;;;2.02;1.30;;;25.60;99.90;;;;;;2000771;70;21092;-82
2021/06/14 06:08:31;;;;;;;3.10;1.45;;;24.70;99.90;;;;;;2040350;70;21050;-81
2021/06/14 06:10:57;;;;;;;10.68;1.50;;;24.30;99.90;;;;;;2040408;70;20995;-82
2021/06/14 06:13:23;;;;;;;3.10;1.40;;;24.60;99.90;;;;;;2040450;70;21063;-80
2021/06/14 06:15:49;;;;;;;3.20;1.55;;;25.10;99.90;;;;;;2040592;70;21051;-81
2021/06/14 06:18:15;;;;;;;7.50;1.37;;;25.20;99.90;;;;;;2040769;70;21050;-82
2021/06/14 06:20:43;;;;;;;2.60;1.07;;;24.70;99.80;;;;;;2040728;70;21101;-81
2021/06/14 06:23:09;;;;;;;2.30;1.07;;;24.10;99.20;;;;;;2040671;70;21088;-82
2021/06/14 06:25:35;;;;;;;4.90;1.42;;;23.90;99.90;;;;;;2040898;70;21042;-82
2021/06/14 06:28:01;;;;;;;2.83;1.32;;;23.30;99.90;;;;;;2040655;70;21050;-79
2021/06/14 06:30:28;;;;;;;7.87;1.57;;;23.30;99.90;;;;;;2040845;70;21016;-79
2021/06/14 06:32:54;;;;;;;2.20;1.25;;;23.80;99.80;;;;;;2040831;69;21058;-79
2021/06/14 06:35:20;;;;;;;3.77;1.30;;;24.10;98.50;;;;;;2041100;70;21050;-77
2021/06/14 06:37:46;;;;;;;5.22;1.52;;;23.30;99.30;;;;;;2044627;70;21038;-79
2021/06/14 06:40:13;;;;;;;2.42;1.05;;;23.80;99.90;;;;;;2044000;70;21065;-79
2021/06/14 06:42:39;;;;;;;3.30;1.47;;;24.20;99.70;;;;;;2040813;70;21070;-79
2021/06/14 06:45:05;;;;;;;4.50;1.20;;;24.10;98.00;;;;;;2040725;70;21046;-79
2021/06/14 06:47:31;;;;;;;2.12;0.90;;;24.60;99.70;;;;;;2040989;70;21042;-79
2021/06/14 06:49:58;;;;;;;1.87;1.27;;;25.00;98.10;;;;;;2040987;70;21054;-78
2021/06/14 06:52:24;;;;;;;3.02;0.95;;;24.50;97.60;;;;;;2040966;70;21046;-79
2021/06/14 06:54:50;;;;;;;1.15;0.80;;;24.20;97.20;;;;;;2041061;70;21046;-78
2021/06/14 06:57:16;;;;;;;2.42;1.40;;;23.20;98.70;;;;;;2041138;69;21112;-79
2021/06/14 06:59:43;;;;;;;1.57;1.30;;;22.90;99.50;;;;;;2041108;69;21159;-78
2021/06/14 07:02:09;;;;;;;4.12;1.60;;;23.20;99.00;;;;;;2040800;70;21466;-78
2021/06/14 07:04:37;;;;;;;2.30;1.20;;;23.00;98.30;;;;;;2041046;70;21427;-77
2021/06/14 07:07:03;;;;;;;8.40;1.10;;;23.50;98.60;;;;;;2040782;70;21070;-79
2021/06/14 07:09:29;;;;;;;2.55;0.80;;;23.20;98.50;;;;;;2041071;70;21054;-81
2021/06/14 07:11:56;;;;;;;2.60;1.60;;;22.90;98.70;;;;;;2040581;70;21063;-79
2021/06/14 07:14:22;;;;;;;2.37;1.47;;;23.00;98.80;;;;;;2040868;69;21094;-79
2021/06/14 07:16:49;;;;;;;2.60;1.37;;;23.10;98.80;;;;;;2040916;70;21012;-80
2021/06/14 07:19:15;;;;;;;3.08;1.37;;;23.40;98.90;;;;;;2041007;70;21047;-80
2021/06/14 07:21:41;;;;;;;5.05;1.17;;;23.60;98.40;;;;;;2040884;70;21050;-79
2021/06/14 07:24:07;;;;;;;4.42;1.32;;;24.00;97.60;;;;;;2041033;70;21047;-80
2021/06/14 07:26:33;;;;;;;1.75;1.25;;;23.90;97.00;;;;;;2040822;70;21106;-78
2021/06/14 07:29:00;;;;;;;2.72;1.42;;;24.00;97.20;;;;;;2040592;70;21057;-79
2021/06/14 07:31:26;;;;;;;4.42;1.30;;;23.30;98.10;;;;;;2040927;70;21047;-83
2021/06/14 07:33:52;;;;;;;6.83;1.35;;;22.60;98.90;;;;;;2040619;70;21112;-82
2021/06/14 07:36:18;;;;;;;4.30;1.22;;;22.80;99.00;;;;;;2040727;70;21144;-83
2021/06/14 07:38:44;;;;;;;10.75;1.35;;;23.30;98.70;;;;;;2040419;70;21062;-79
2021/06/14 07:41:10;;;;;;;4.60;1.42;;;23.80;98.40;;;;;;2040506;70;21016;-83
2021/06/14 07:43:36;;;;;;;3.98;0.90;;;24.30;97.10;;;;;;2039398;70;21059;-79
2021/06/14 07:46:03;;;;;;;5.72;1.40;;;24.10;97.30;;;;;;2037514;70;21098;-80
2021/06/14 07:48:29;;;;;;;4.58;1.40;;;24.50;95.70;;;;;;2040550;70;21038;-81
2021/06/14 07:50:57;;;;;;;2.45;1.05;;;23.90;96.40;;;;;;2033959;69;21070;-78
2021/06/14 07:53:23;;;;;;;1.32;0.93;;;23.50;96.70;;;;;;2040447;69;21526;-78
2021/06/14 07:55:52;;;;;;;4.50;1.30;;;24.10;97.00;;;;;;2040595;70;21462;-78
2021/06/14 07:58:17;;;;;;;3.10;1.30;;;24.30;96.00;;;;;;2040274;70;21083;-81
2021/06/14 08:00:43;;;;;;;5.20;1.47;;;24.10;95.80;;;;;;2040576;69;21117;-80
2021/06/14 08:03:09;;;;;;;3.05;1.22;;;23.80;96.40;;;;;;2040567;70;21019;-81
2021/06/14 08:05:35;;;;;;;2.77;1.65;;;24.00;97.10;;;;;;2040502;70;21120;-80
2021/06/14 08:08:01;;;;;;;2.85;1.37;;;24.20;96.30;;;;;;2040468;69;21124;-79
2021/06/14 08:10:28;;;;;;;6.83;1.60;;;24.90;95.60;;;;;;2040499;69;21027;-79
2021/06/14 08:12:54;;;;;;;4.08;1.12;;;24.90;95.00;;;;;;2040512;70;21159;-79
2021/06/14 08:15:20;;;;;;;11.03;1.32;;;24.30;95.70;;;;;;2040581;69;21121;-81
2021/06/14 08:17:46;;;;;;;2.92;1.20;;;25.10;96.00;;;;;;2040520;70;21026;-80
2021/06/14 08:20:36;;;;;;;2.40;1.50;;;25.20;94.90;;;;;;2040600;70;21082;-80
2021/06/14 08:25:33;;;;;;;4.12;1.10;;;23.90;96.60;;;;;;2040665;69;21523;-79
2021/06/14 08:27:59;;;;;;;11.38;1.22;;;24.30;96.10;;;;;;2040506;69;21419;-80
2021/06/14 08:30:25;;;;;;;3.77;1.50;;;24.70;95.40;;;;;;2040423;70;21124;-80
2021/06/14 08:32:51;;;;;;;3.77;1.32;;;24.50;96.50;;;;;;2040509;69;21046;-80
2021/06/14 08:35:17;;;;;;;4.10;1.27;;;24.50;96.10;;;;;;2040537;70;21024;-80
2021/06/14 08:37:43;;;;;;;2.70;1.15;;;24.50;94.60;;;;;;2040518;70;21163;-80
2021/06/14 08:40:09;;;;;;;4.15;1.25;;;24.20;94.50;;;;;;2040456;70;21059;-79
2021/06/14 08:42:36;;;;;;;5.47;1.17;;;24.40;96.60;;;;;;2030093;70;21054;-81
2021/06/14 08:45:02;;;;;;;3.35;1.50;;;24.80;95.50;;;;;;2003701;71;21141;-80
2021/06/14 08:47:28;;;;;;;4.17;1.32;;;24.60;94.60;;;;;;2003856;72;21071;-79
2021/06/14 08:49:56;;;;;;;3.77;1.27;;;24.40;93.70;;;;;;2003809;71;21173;-80
2021/06/14 08:52:22;;;;;;;4.70;1.55;;;24.20;93.60;;;;;;2003828;71;21074;-80
2021/06/14 08:54:48;;;;;;;2.15;1.45;;;23.60;94.90;;;;;;2003819;72;21101;-80
2021/06/14 08:57:15;;;;;;;2.80;1.17;;;23.60;96.00;;;;;;2003954;72;21083;-80
2021/06/14 08:59:41;;;;;;;3.55;1.37;;;23.90;95.40;;;;;;2004028;72;21152;-79
2021/06/14 09:02:07;;;;;;;4.45;1.37;;;24.10;93.80;;;;;;2003687;72;21050;-80
2021/06/14 09:04:34;;;;;;;3.12;1.10;;;24.30;93.70;;;;;;2003869;72;21114;-79
2021/06/14 09:07:00;;;;;;;2.58;1.12;;;24.40;93.70;;;;;;2003603;72;21054;-79
2021/06/14 09:09:26;;;;;;;2.77;0.90;;;24.40;94.50;;;;;;2003822;72;21083;-80
2021/06/14 09:11:52;;;;;;;3.17;1.30;;;24.60;93.30;;;;;;2003747;72;21119;-78
2021/06/14 09:14:18;;;;;;;2.33;1.22;;;24.50;93.80;;;;;;2003797;72;21065;-80
2021/06/14 09:16:44;;;;;;;2.60;1.35;;;24.60;92.90;;;;;;2003776;72;21183;-79
2021/06/14 09:19:10;;;;;;;1.17;1.10;;;24.60;92.60;;;;;;2003849;72;21087;-81
2021/06/14 09:21:36;;;;;;;3.90;1.32;;;24.50;93.50;;;;;;2000802;72;21078;-78
2021/06/14 09:24:05;;;;;;;4.15;1.50;;;24.70;92.70;;;;;;2003892;72;21176;-79
2021/06/14 09:26:30;;;;;;;7.85;1.17;;;24.70;92.20;;;;;;2003511;71;21157;-78
2021/06/14 09:28:57;;;;;;;5.72;0.85;;;24.80;91.10;;;;;;2002343;71;21564;-79
2021/06/14 09:31:26;;;;;;;2.30;1.20;;;24.40;91.30;;;;;;2003035;72;21109;-79
2021/06/14 09:33:51;;;;;;;1.40;1.00;;;24.80;92.10;;;;;;2003526;71;21102;-80
2021/06/14 09:36:17;;;;;;;3.55;1.00;;;25.40;91.80;;;;;;2002590;72;21050;-80
2021/06/14 09:38:43;;;;;;;2.98;1.20;;;24.90;89.50;;;;;;2001168;72;21179;-80
2021/06/14 09:41:10;;;;;;;3.27;1.05;;;24.90;90.60;;;;;;2000572;72;21062;-80
2021/06/14 09:46:21;;;;;;;1.40;1.00;;;25.50;91.20;;;;;;2003576;72;21067;-81
2021/06/14 09:48:47;;;;;;;2.52;1.17;;;25.70;90.20;;;;;;2003584;72;21132;-80
2021/06/14 09:51:13;;;;;;;1.75;0.93;;;25.60;89.60;;;;;;2003553;72;21182;-79
2021/06/14 09:53:39;;;;;;;3.60;1.15;;;25.50;90.40;;;;;;2003742;72;21071;-80
2021/06/14 09:56:05;;;;;;;4.20;1.40;;;25.50;91.30;;;;;;2003712;71;21188;-80
2021/06/14 09:58:32;;;;;;;5.42;1.25;;;25.60;90.80;;;;;;2003838;72;21094;-80
2021/06/14 10:00:58;;;;;;;7.45;1.32;;;25.30;90.70;;;;;;2003723;71;21123;-80
2021/06/14 10:03:24;;;;;;;3.75;1.42;;;25.60;90.20;;;;;;2004000;72;21119;-80
2021/06/14 10:05:50;;;;;;;2.72;1.32;;;25.90;88.10;;;;;;2004624;71;21156;-81
2021/06/14 10:08:16;;;;;;;2.55;1.10;;;25.80;88.40;;;;;;2006175;72;21079;-80
2021/06/14 10:10:42;;;;;;;3.10;2.12;;;25.90;88.40;;;;;;2007533;71;21050;-80
2021/06/14 10:13:12;;;;;;;3.17;1.40;;;25.70;88.30;;;;;;2007489;70;21156;-80
2021/06/14 10:15:38;;;;;;;6.28;1.10;;;25.80;86.60;;;;;;2007518;72;21150;-81
2021/06/14 10:18:04;;;;;;;1.35;0.93;;;25.90;84.80;;;;;;2007409;71;21120;-81
2021/06/14 10:20:30;;;;;;;2.27;1.32;;;26.20;83.60;;;;;;2007494;71;21049;-81
2021/06/14 10:22:57;;;;;;;4.42;1.47;;;26.20;85.70;;;;;;2007381;72;21109;-81
2021/06/14 10:28:08;;;;;;;3.90;1.22;;;26.10;87.50;;;;;;1956113;73;21088;-80
2021/06/14 10:30:34;;;;;;;2.90;1.12;;;26.10;84.70;;;;;;1953433;73;21039;-81
2021/06/14 10:33:00;;;;;;;4.22;1.30;;;26.20;85.60;;;;;;1953271;73;21059;-80
2021/06/14 10:35:26;;;;;;;4.12;1.30;;;25.90;86.70;;;;;;1953184;73;21084;-78
2021/06/14 10:37:57;;;;;;;9.35;1.50;;;26.10;83.70;;;;;;1953214;73;21088;-78
2021/06/14 10:40:22;;;;;;;1.37;1.05;;;26.40;83.20;;;;;;1952052;73;21503;-80
2021/06/14 10:42:49;;;;;;;1.77;1.05;;;26.90;83.20;;;;;;1953176;73;21479;-79
2021/06/14 10:45:15;;;;;;;7.95;6.47;;;27.10;82.90;;;;;;1953177;73;21157;-79
2021/06/14 10:47:41;;;;;;;3.25;1.20;;;27.40;75.80;;;;;;1953200;73;21169;-78
2021/06/14 10:50:11;;;;;;;4.80;1.20;;;26.70;75.70;;;;;;1953330;72;21028;-80
2021/06/14 10:52:38;;;;;;;2.20;1.00;;;26.20;79.00;;;;;;1957824;73;21176;-80
2021/06/14 10:55:05;;;;;;;3.33;1.00;;;26.50;74.80;;;;;;1950279;73;21112;-79
2021/06/14 10:57:31;;;;;;;2.83;0.90;;;26.80;74.80;;;;;;1940946;73;21063;-79
2021/06/14 10:59:57;;;;;;;2.10;0.90;;;26.50;75.40;;;;;;1953095;73;21215;-80
2021/06/14 11:02:25;;;;;;;2.95;1.00;;;26.80;75.50;;;;;;1953199;73;21028;-79
2021/06/14 11:04:51;;;;;;;1.90;0.82;;;26.80;75.30;;;;;;1953163;73;21091;-81
2021/06/14 11:07:18;;;;;;;1.77;0.80;;;27.00;71.10;;;;;;1953139;73;21135;-81
2021/06/14 11:09:44;;;;;;;2.47;1.00;;;26.80;72.20;;;;;;1953112;73;21099;-82
2021/06/14 11:12:10;;;;;;;3.92;1.07;;;27.00;71.60;;;;;;1953623;73;21133;-80
2021/06/14 11:14:36;;;;;;;3.75;1.22;;;27.00;72.80;;;;;;1953127;73;21176;-79
2021/06/14 11:17:02;;;;;;;3.00;0.80;;;27.10;71.60;;;;;;1953066;73;21211;-81
2021/06/14 11:19:28;;;;;;;1.10;1.00;;;27.10;70.40;;;;;;1953317;72;21113;-80
2021/06/14 11:21:54;;;;;;;3.85;1.02;;;26.60;72.40;;;;;;1953154;72;21072;-79
2021/06/14 11:24:20;;;;;;;1.95;0.80;;;26.40;71.60;;;;;;1953293;73;21059;-81
2021/06/14 11:26:49;;;;;;;5.58;0.90;;;26.60;67.20;;;;;;1953136;73;21099;-80
2021/06/14 11:29:17;;;;;;;1.25;0.80;;;27.40;65.70;;;;;;1953080;72;21067;-81
2021/06/14 11:31:43;;;;;;;3.87;0.90;;;27.60;64.50;;;;;;1953439;72;21067;-82
2021/06/14 11:34:09;;;;;;;1.47;1.02;;;27.50;66.60;;;;;;1953201;73;21095;-78
2021/06/14 11:36:35;;;;;;;3.40;1.10;;;27.60;67.70;;;;;;1953240;72;21072;-77
2021/06/14 11:39:02;;;;;;;1.20;0.70;;;27.10;70.30;;;;;;1953234;73;21095;-79
2021/06/14 11:41:28;;;;;;;4.30;1.07;;;27.00;67.20;;;;;;1953254;73;21086;-78
2021/06/14 11:43:54;;;;;;;2.55;0.90;;;26.70;70.00;;;;;;1953210;73;21099;-77
2021/06/14 11:46:24;;;;;;;3.80;1.00;;;27.40;69.70;;;;;;1953350;73;21443;-78
2021/06/14 11:48:48;;;;;;;7.67;1.05;;;27.90;67.70;;;;;;1952736;73;21208;-78
2021/06/14 11:51:18;;;;;;;3.98;1.10;;;27.70;66.50;;;;;;1953236;73;21491;-79
2021/06/14 11:53:43;;;;;;;5.45;0.90;;;28.10;65.40;;;;;;1952844;72;21080;-79
2021/06/14 11:56:09;;;;;;;3.35;1.00;;;28.10;64.50;;;;;;1953417;73;21036;-78
2021/06/14 11:58:36;;;;;;;2.20;0.88;;;27.90;67.30;;;;;;1953095;72;21088;-77
2021/06/14 12:01:02;;;;;;;4.05;0.78;;;28.10;65.60;;;;;;1953075;73;21095;-78
2021/06/14 12:03:29;;;;;;;1.27;0.80;;;28.30;67.90;;;;;;1953296;72;21114;-76
2021/06/14 12:06:01;;;;;;;2.80;1.00;;;28.20;65.30;;;;;;1953088;73;21072;-77
2021/06/14 12:08:27;;;;;;;3.75;1.00;;;28.10;65.00;;;;;;1953013;73;21092;-77
2021/06/14 12:10:53;;;;;;;1.10;0.78;;;27.90;66.10;;;;;;1953255;73;21059;-77
2021/06/14 12:13:19;;;;;;;3.47;1.15;;;27.40;66.70;;;;;;1953015;73;21166;-76
2021/06/14 12:15:45;;;;;;;1.35;0.68;;;27.60;66.50;;;;;;1953216;73;21058;-76
2021/06/14 12:18:11;;;;;;;3.72;1.15;;;28.40;65.40;;;;;;1953073;72;21071;-77
2021/06/14 12:20:37;;;;;;;1.65;0.80;;;28.40;63.20;;;;;;1953346;73;21098;-76
2021/06/14 12:23:04;;;;;;;4.12;0.93;;;28.50;63.60;;;;;;1953089;72;21091;-77
2021/06/14 12:25:30;;;;;;;4.87;1.30;;;28.40;64.40;;;;;;1953112;73;21080;-77
2021/06/14 12:27:56;;;;;;;2.00;0.68;;;28.10;60.40;;;;;;1953176;72;21081;-77
2021/06/14 12:30:25;;;;;;;3.65;1.07;;;28.60;63.00;;;;;;1953139;73;21111;-77
2021/06/14 12:32:50;;;;;;;5.10;1.20;;;29.20;63.80;;;;;;1952806;73;21083;-77
2021/06/14 12:35:16;;;;;;;5.10;1.20;;;29.60;62.00;;;;;;1953211;73;21054;-77
2021/06/14 12:37:42;;;;;;;2.45;1.47;;;29.70;63.90;;;;;;1953265;73;21157;-76
2021/06/14 12:40:08;;;;;;;1.50;0.90;;;30.70;61.90;;;;;;1953235;73;21138;-77
2021/06/14 12:42:34;;;;;;;1.92;1.02;;;30.60;60.10;;;;;;1953229;73;21076;-77
2021/06/14 12:45:02;;;;;;;2.45;0.80;;;30.30;61.00;;;;;;1953294;73;21059;-77
2021/06/14 12:47:28;;;;;;;2.42;1.10;;;31.10;61.90;;;;;;1953112;73;21159;-77
2021/06/14 12:49:54;;;;;;;1.72;1.00;;;32.00;58.10;;;;;;1953894;73;21088;-78
2021/06/14 12:52:20;;;;;;;2.67;0.72;;;31.00;58.30;;;;;;1953363;72;21136;-77
2021/06/14 12:54:47;;;;;;;2.70;0.80;;;31.20;58.00;;;;;;1953142;72;21076;-79